createdAt,value
2019-02-27T10:55:17.985Z,18.90
2019-02-27T10:57:45.607Z,19.00
2019-02-27T11:00:25.898Z,19.20
2019-02-27T11:02:54.214Z,19.10
2019-02-27T11:05:21.942Z,18.90
2019-02-27T11:07:50.096Z,18.60
2019-02-27T11:10:19.560Z,18.70
2019-02-27T11:12:47.255Z,19.00
2019-02-27T11:15:15.570Z,19.40
2019-02-27T11:17:43.189Z,19.70
2019-02-27T11:20:11.245Z,19.30
2019-02-27T11:22:39.041Z,19.20
2019-02-27T11:25:09.089Z,19.40
2019-02-27T11:27:39.013Z,19.70
2019-02-27T11:30:09.894Z,19.80
2019-02-27T11:32:37.892Z,19.80
2019-02-27T11:35:05.829Z,19.90
2019-02-27T11:37:33.451Z,20.00
2019-02-27T11:40:01.180Z,20.10
2019-02-27T11:42:28.951Z,19.70
2019-02-27T11:44:58.605Z,19.80
2019-02-27T11:47:26.323Z,19.60
2019-02-27T11:49:53.935Z,19.70
2019-02-27T11:52:21.906Z,19.90
2019-02-27T11:54:49.822Z,19.80
2019-02-27T11:57:17.419Z,20.20
2019-02-27T11:59:47.017Z,20.60
2019-02-27T12:02:15.056Z,20.60
2019-02-27T12:04:42.698Z,20.60
2019-02-27T12:07:12.225Z,20.90
2019-02-27T12:09:40.427Z,21.30
2019-02-27T12:12:13.349Z,21.60
2019-02-27T12:14:40.880Z,21.50
2019-02-27T12:17:08.550Z,21.30
2019-02-27T12:19:36.168Z,21.10
2019-02-27T12:22:04.113Z,21.20
2019-02-27T12:24:31.713Z,21.50
2019-02-27T12:26:59.310Z,21.90
2019-02-27T12:29:27.354Z,21.90
2019-02-27T12:31:55.174Z,21.80
2019-02-27T12:34:23.062Z,21.60
2019-02-27T12:36:52.550Z,21.30
2019-02-27T12:39:20.114Z,21.30
2019-02-27T12:41:47.732Z,21.50
2019-02-27T12:44:15.223Z,21.80
2019-02-27T12:46:42.899Z,22.10
2019-02-27T12:49:10.489Z,22.10
2019-02-27T12:51:38.291Z,22.10
2019-02-27T12:54:06.738Z,22.10
2019-02-27T12:56:34.417Z,21.70
2019-02-27T12:59:02.106Z,21.30
2019-02-27T13:01:29.736Z,20.90
2019-02-27T13:03:57.906Z,20.70
2019-02-27T13:06:25.815Z,21.10
2019-02-27T13:08:53.534Z,21.60
2019-02-27T13:11:21.109Z,21.50
2019-02-27T13:13:48.621Z,21.10
2019-02-27T13:16:16.273Z,21.10
2019-02-27T13:18:43.856Z,21.40
2019-02-27T13:21:11.727Z,21.50
2019-02-27T13:23:42.241Z,21.70
2019-02-27T13:26:08.857Z,22.20
2019-02-27T13:28:36.437Z,22.30
2019-02-27T13:31:04.384Z,22.10
2019-02-27T13:33:32.934Z,21.70
2019-02-27T13:36:01.488Z,21.60
2019-02-27T13:38:29.139Z,21.70
2019-02-27T13:40:56.876Z,21.90
2019-02-27T13:43:27.143Z,22.00
2019-02-27T13:45:54.270Z,22.10
2019-02-27T13:48:21.993Z,21.90
2019-02-27T13:50:49.792Z,21.90
2019-02-27T13:53:17.421Z,22.10
2019-02-27T15:47:03.033Z,18.80
2019-02-27T15:51:58.441Z,18.20
2019-02-27T15:54:26.076Z,17.90
2019-02-27T15:56:55.118Z,17.60
2019-02-27T15:59:23.734Z,17.40
2019-02-27T16:01:51.475Z,17.30
2019-02-27T16:04:21.127Z,17.30
2019-02-27T16:19:11.604Z,17.00
2019-02-27T16:21:39.206Z,16.90
2019-02-27T16:24:09.580Z,16.80
